Time;durP1;ratioP1;P1;durP2;ratioP2;P2;SDS_P1;SDS_P2;PMS_P1;PMS_P2;Temp;Humidity;BMP_temperature;BMP_pressure;BME280_temperature;BME280_humidity;BME280_pressure;Samples;Min_cycle;Max_cycle;Signal;HPM_P1;HPM_P2
2022/09/07 00:00:48;;;;;;;98.97;94.07;;;;;;;18.58;85.11;101305.75;5074280;28;20055;-68
2022/09/07 00:03:13;;;;;;;93.85;89.00;;;;;;;18.36;84.92;101294.25;5077974;28;20477;-68
2022/09/07 00:05:43;;;;;;;96.18;91.47;;;;;;;18.40;85.02;101312.38;5073718;28;20024;-68
2022/09/07 00:08:09;;;;;;;89.03;84.60;;;;;;;18.44;85.70;101297.63;5076448;28;20047;-68
2022/09/07 00:10:35;;;;;;;96.10;91.60;;;;;;;18.33;85.15;101279.41;5074859;28;20287;-68
2022/09/07 00:13:01;;;;;;;98.93;93.35;;;;;;;18.40;86.25;101291.00;5076901;28;20509;-68
2022/09/07 00:15:26;;;;;;;94.45;90.07;;;;;;;18.41;85.09;101265.91;5070332;28;20024;-68
2022/09/07 00:17:52;;;;;;;105.30;100.50;;;;;;;18.58;82.73;101279.84;5077628;28;20028;-68
2022/09/07 00:20:17;;;;;;;111.88;106.93;;;;;;;18.69;81.65;101281.19;5071714;28;20500;-68
2022/09/07 00:22:44;;;;;;;110.72;105.47;;;;;;;18.79;81.93;101283.53;5078858;28;20028;-68
2022/09/07 00:25:10;;;;;;;129.98;123.90;;;;;;;18.81;81.79;101274.28;5072032;28;20407;-69
2022/09/07 00:27:36;;;;;;;125.63;119.88;;;;;;;18.88;81.38;101291.25;5076251;28;20024;-68
2022/09/07 00:30:01;;;;;;;133.50;127.63;;;;;;;18.93;80.90;101292.50;5077345;28;20480;-68
2022/09/07 00:32:26;;;;;;;132.50;126.63;;;;;;;18.90;82.93;101291.88;5072653;28;20139;-69
2022/09/07 00:34:52;;;;;;;120.38;114.82;;;;;;;18.86;84.10;101290.59;5083439;28;20035;-69
2022/09/07 00:37:17;;;;;;;122.30;116.57;;;;;;;18.84;83.92;101292.63;5076755;28;20020;-68
2022/09/07 00:39:43;;;;;;;117.20;111.90;;;;;;;18.87;82.25;101289.56;5080831;28;20059;-68
2022/09/07 00:42:08;;;;;;;124.85;119.20;;;;;;;18.89;83.56;101292.88;5081762;28;20042;-69
2022/09/07 00:44:43;;;;;;;117.72;112.60;;;;;;;18.83;84.82;101290.97;5073822;28;20509;-69
2022/09/07 00:47:36;;;;;;;106.28;101.35;;;;;;;18.84;84.90;101287.28;5079424;28;20028;-69
2022/09/07 00:50:08;;;;;;;115.47;110.22;;;;;;;18.84;83.09;101281.94;5051727;28;20543;-69
2022/09/07 00:52:36;;;;;;;119.57;114.25;;;;;;;18.79;84.84;101257.66;5073762;28;20107;-69
2022/09/07 00:55:06;;;;;;;110.47;105.47;;;;;;;18.82;84.27;101273.28;5063897;28;20524;-69
2022/09/07 00:57:34;;;;;;;108.55;103.57;;;;;;;18.78;84.86;101276.53;5076010;28;20057;-69
2022/09/07 00:59:59;;;;;;;99.15;94.45;;;;;;;18.64;87.54;101287.09;5074491;28;20024;-69
2022/09/07 01:02:25;;;;;;;92.38;88.07;;;;;;;18.45;89.28;101277.06;5077782;28;20028;-69
2022/09/07 01:05:03;;;;;;;88.65;84.55;;;;;;;18.55;88.09;101271.38;5072179;28;20044;-69
2022/09/07 01:07:28;;;;;;;100.03;95.43;;;;;;;18.61;86.23;101274.09;5076040;28;20045;-69
2022/09/07 01:09:54;;;;;;;93.10;88.75;;;;;;;18.62;86.37;101280.31;5079612;28;20119;-69
2022/09/07 01:12:20;;;;;;;100.45;95.82;;;;;;;18.64;86.17;101280.91;5074754;28;20025;-69
2022/09/07 01:14:50;;;;;;;102.35;97.13;;;;;;;18.68;87.26;101277.69;5077081;28;20035;-69
2022/09/07 01:17:28;;;;;;;93.57;89.05;;;;;;;18.53;90.26;101270.75;5059905;28;20524;-69
2022/09/07 01:20:24;;;;;;;99.63;95.07;;;;;;;18.60;88.50;101285.00;5072010;28;20031;-68
2022/09/07 01:23:35;;;;;;;94.13;89.60;;;;;;;18.65;87.04;101282.56;5076928;28;20028;-68
2022/09/07 01:26:00;;;;;;;;;;;;;;;18.63;91.12;101295.31;5078488;28;20514;-69
2022/09/07 01:28:28;;;;;;;80.87;76.73;;;;;;;18.50;92.12;101288.81;5076808;28;19917;-69
2022/09/07 01:31:19;;;;;;;82.85;78.72;;;;;;;18.54;89.84;101286.59;5077702;28;20300;-69
2022/09/07 01:34:17;;;;;;;72.32;68.70;;;;;;;18.54;87.65;101275.09;5076740;28;20035;-69
2022/09/07 01:37:20;;;;;;;92.07;87.28;;;;;;;18.57;90.43;101264.81;5066985;28;20111;-69
2022/09/07 01:40:01;;;;;;;112.82;107.40;;;;;;;18.29;95.89;101267.44;5075249;28;20384;-69
2022/09/07 01:42:33;;;;;;;69.80;66.07;;;;;;;17.96;99.72;101275.91;5071358;28;20024;-69
2022/09/07 01:45:10;;;;;;;118.45;112.65;;;;;;;17.68;100.00;101294.44;5074527;28;20077;-69
2022/09/07 01:48:09;;;;;;;130.40;124.25;;;;;;;17.32;100.00;101353.09;5075941;28;20528;-69
2022/09/07 01:50:43;;;;;;;122.93;116.38;;;;;;;17.20;100.00;101363.34;5009291;28;20046;-69
2022/09/07 01:53:16;;;;;;;130.98;124.70;;;;;;;17.27;100.00;101391.78;5006996;28;20038;-69
2022/09/07 01:56:15;;;;;;;131.07;125.00;;;;;;;17.22;100.00;101402.19;5008096;28;20068;-69
2022/09/07 01:58:53;;;;;;;121.55;115.72;;;;;;;17.05;100.00;101392.66;4989049;28;20069;-69
2022/09/07 02:01:24;;;;;;;110.70;105.40;;;;;;;16.81;100.00;101413.16;5006166;28;20062;-69
2022/09/07 02:03:52;;;;;;;104.00;99.15;;;;;;;16.77;100.00;101419.81;4991500;28;20037;-69
2022/09/07 02:06:32;;;;;;;120.55;114.40;;;;;;;16.71;100.00;101411.72;5008112;28;20152;-69
2022/09/07 02:09:02;;;;;;;112.10;106.27;;;;;;;16.64;100.00;101419.59;4992742;28;20022;-69
2022/09/07 02:11:39;;;;;;;126.05;120.20;;;;;;;16.65;100.00;101402.56;5007322;28;20030;-69
2022/09/07 02:14:29;;;;;;;115.55;109.97;;;;;;;16.54;100.00;101384.31;5005671;28;20434;-69
2022/09/07 02:16:57;;;;;;;99.03;94.00;;;;;;;16.69;100.00;101395.06;5006729;28;20053;-69
2022/09/07 02:19:25;;;;;;;105.95;100.68;;;;;;;16.61;100.00;101385.28;5008404;28;20058;-69
2022/09/07 02:21:58;;;;;;;118.13;112.45;;;;;;;16.74;100.00;101361.53;4991245;28;20033;-69
2022/09/07 02:24:29;;;;;;;118.90;112.95;;;;;;;16.91;100.00;101345.44;5008379;28;20120;-69
2022/09/07 02:26:58;;;;;;;114.78;109.43;;;;;;;17.06;100.00;101351.66;5061272;28;20112;-69
2022/09/07 02:29:23;;;;;;;129.82;123.55;;;;;;;17.09;100.00;101342.44;5075227;28;20023;-69
2022/09/07 02:31:50;;;;;;;128.02;121.75;;;;;;;17.10;100.00;101336.13;5076462;28;20056;-69
2022/09/07 02:34:17;;;;;;;124.15;118.43;;;;;;;17.10;100.00;101320.94;5073875;28;20105;-69
2022/09/07 02:36:49;;;;;;;141.65;134.15;;;;;;;17.11;100.00;101293.25;5077073;28;20031;-69
2022/09/07 02:39:14;;;;;;;120.95;115.35;;;;;;;17.16;100.00;101277.56;5074179;28;20115;-69
2022/09/07 02:41:42;;;;;;;113.25;107.90;;;;;;;17.26;100.00;101283.41;5077064;28;20110;-69
2022/09/07 02:44:17;;;;;;;100.70;95.95;;;;;;;17.33;100.00;101266.69;5075273;28;20457;-69
2022/09/07 02:46:52;;;;;;;107.43;102.07;;;;;;;17.38;100.00;101253.63;5074574;28;20055;-69
2022/09/07 02:49:35;;;;;;;101.05;96.15;;;;;;;17.36;100.00;101245.81;5077775;28;20020;-69
2022/09/07 02:52:08;;;;;;;114.28;108.78;;;;;;;17.39;100.00;101245.44;5075931;28;20383;-69
2022/09/07 02:54:34;;;;;;;102.60;97.75;;;;;;;17.41;100.00;101237.25;5077110;28;20472;-69
2022/09/07 02:57:22;;;;;;;105.47;100.13;;;;;;;17.40;100.00;101227.59;5078777;28;20027;-69
2022/09/07 02:59:53;;;;;;;103.15;98.15;;;;;;;17.25;100.00;101228.44;5076819;28;20073;-69
2022/09/07 03:02:28;;;;;;;;;;;;;;;17.36;100.00;101231.66;5080107;28;20040;-69
2022/09/07 03:05:40;;;;;;;101.57;96.00;;;;;;;17.35;100.00;101206.78;5076687;28;19919;-69
2022/09/07 03:08:17;;;;;;;110.95;105.68;;;;;;;17.20;100.00;101181.97;5017368;28;20079;-69
2022/09/07 03:10:43;;;;;;;121.40;115.13;;;;;;;17.27;100.00;101231.75;5000497;28;20555;-69
2022/09/07 03:13:19;;;;;;;113.72;108.38;;;;;;;17.20;100.00;101244.16;5015283;28;20033;-69
2022/09/07 03:15:44;;;;;;;124.53;118.78;;;;;;;17.26;100.00;101247.94;5016258;28;20375;-69
2022/09/07 03:18:11;;;;;;;104.03;99.22;;;;;;;17.30;100.00;101235.88;5018861;28;20094;-69
2022/09/07 03:20:36;;;;;;;99.63;94.70;;;;;;;17.36;100.00;101235.13;5017278;28;20423;-69
2022/09/07 03:23:02;;;;;;;99.85;95.20;;;;;;;17.26;100.00;101206.06;5015205;28;20172;-69
2022/09/07 03:25:27;;;;;;;105.40;100.45;;;;;;;17.35;100.00;101211.31;5000618;28;20029;-69
2022/09/07 03:27:52;;;;;;;108.00;102.80;;;;;;;17.27;100.00;101215.75;5016739;28;20037;-69
2022/09/07 03:30:18;;;;;;;104.18;99.20;;;;;;;17.17;100.00;101215.19;5014617;28;20041;-69
2022/09/07 03:32:43;;;;;;;101.25;96.35;;;;;;;17.21;100.00;101210.31;5016288;28;20062;-69
2022/09/07 03:35:09;;;;;;;86.28;81.65;;;;;;;17.23;100.00;101202.97;5000449;28;20049;-69
2022/09/07 03:37:36;;;;;;;97.88;93.10;;;;;;;17.10;100.00;101184.94;5016525;28;20033;-69
2022/09/07 03:40:04;;;;;;;98.50;93.65;;;;;;;17.12;100.00;101190.09;5016473;28;20402;-69
2022/09/07 03:42:29;;;;;;;106.15;100.93;;;;;;;17.12;100.00;101190.91;5022295;28;20053;-69
2022/09/07 03:44:55;;;;;;;107.57;102.30;;;;;;;17.12;100.00;101185.59;5075510;28;20182;-69
2022/09/07 03:47:20;;;;;;;116.05;110.40;;;;;;;16.96;100.00;101181.28;5071451;28;20065;-69
2022/09/07 03:49:45;;;;;;;122.75;116.97;;;;;;;16.85;100.00;101184.38;5075129;28;20028;-69
2022/09/07 03:52:11;;;;;;;102.40;97.43;;;;;;;16.87;100.00;101169.03;5076747;28;20028;-69
2022/09/07 03:54:37;;;;;;;90.57;85.85;;;;;;;16.94;100.00;101163.78;5078220;28;20131;-69
2022/09/07 03:57:02;;;;;;;87.30;82.70;;;;;;;17.02;100.00;101158.34;5074924;28;20039;-69
2022/09/07 03:59:28;;;;;;;94.85;90.10;;;;;;;16.92;100.00;101168.47;5074449;28;20472;-69
2022/09/07 04:01:53;;;;;;;100.53;95.55;;;;;;;16.71;100.00;101170.00;5073429;28;20027;-69
2022/09/07 04:04:18;;;;;;;103.93;99.10;;;;;;;16.70;100.00;101167.50;5077785;28;20059;-69
2022/09/07 04:06:44;;;;;;;98.10;93.35;;;;;;;16.76;100.00;101164.13;5079537;28;20026;-69
2022/09/07 04:09:12;;;;;;;99.22;94.53;;;;;;;16.77;100.00;101158.63;5072356;28;20162;-69
2022/09/07 04:11:39;;;;;;;98.45;93.22;;;;;;;16.75;100.00;101168.63;5076803;28;20024;-68
2022/09/07 04:14:05;;;;;;;102.30;97.28;;;;;;;16.56;100.00;101163.81;5075272;28;20033;-68
2022/09/07 04:16:30;;;;;;;96.85;92.22;;;;;;;16.63;100.00;101164.75;5080612;28;20020;-68
2022/09/07 04:18:57;;;;;;;98.03;92.95;;;;;;;16.68;100.00;101173.03;5078968;28;20028;-68
2022/09/07 04:21:24;;;;;;;103.68;98.40;;;;;;;16.64;100.00;101161.09;5075985;28;20033;-68
2022/09/07 04:23:50;;;;;;;99.20;94.55;;;;;;;16.69;100.00;101153.34;5075909;28;20032;-68
2022/09/07 04:26:18;;;;;;;107.15;101.95;;;;;;;16.75;100.00;101176.63;5074840;28;20042;-68
2022/09/07 04:28:44;;;;;;;110.10;104.55;;;;;;;16.77;100.00;101171.94;5078513;28;20425;-68
2022/09/07 04:31:10;;;;;;;97.63;92.68;;;;;;;16.76;100.00;101156.13;5079472;28;20118;-68
2022/09/07 04:33:35;;;;;;;85.22;80.82;;;;;;;16.80;100.00;101163.59;5077049;28;20039;-68
2022/09/07 04:36:01;;;;;;;84.32;79.85;;;;;;;16.85;100.00;101158.56;5082778;28;20024;-68
2022/09/07 04:38:27;;;;;;;91.70;86.65;;;;;;;16.96;100.00;101167.09;5079997;28;20024;-68
2022/09/07 04:41:10;;;;;;;98.00;93.15;;;;;;;16.90;100.00;101147.34;5078258;28;20122;-68
2022/09/07 04:43:38;;;;;;;92.70;87.80;;;;;;;16.94;100.00;101143.31;5077305;28;20416;-68
2022/09/07 04:46:06;;;;;;;92.38;87.53;;;;;;;16.90;100.00;101138.50;5077377;28;20454;-68
2022/09/07 04:48:31;;;;;;;93.10;88.43;;;;;;;16.91;100.00;101150.81;5078509;28;20029;-68
2022/09/07 04:51:07;;;;;;;103.82;98.78;;;;;;;16.79;100.00;101145.94;5078033;28;20112;-68
2022/09/07 04:53:34;;;;;;;106.72;100.97;;;;;;;16.71;100.00;101150.53;5079185;28;20012;-68
2022/09/07 04:56:00;;;;;;;106.05;100.53;;;;;;;16.77;100.00;101155.13;5078587;28;20047;-68
2022/09/07 04:58:25;;;;;;;98.05;93.50;;;;;;;16.81;100.00;101156.41;5075948;28;20074;-68
2022/09/07 05:00:51;;;;;;;96.63;91.32;;;;;;;16.73;100.00;101143.16;5077028;28;20069;-68
2022/09/07 05:03:16;;;;;;;88.22;83.57;;;;;;;16.82;100.00;101152.75;5075365;28;20152;-68
2022/09/07 05:05:43;;;;;;;101.90;96.60;;;;;;;16.73;100.00;101169.81;5076825;28;20028;-68
2022/09/07 05:08:09;;;;;;;87.97;83.18;;;;;;;16.64;100.00;101166.41;5076721;28;20028;-68
2022/09/07 05:10:34;;;;;;;99.57;94.50;;;;;;;16.56;100.00;101142.50;5071264;28;20032;-68
2022/09/07 05:13:00;;;;;;;92.38;87.20;;;;;;;16.52;100.00;101144.69;5065863;28;20392;-69
2022/09/07 05:15:29;;;;;;;104.97;99.28;;;;;;;16.55;100.00;101146.16;5072206;28;20031;-69
2022/09/07 05:17:54;;;;;;;102.15;96.70;;;;;;;16.51;100.00;101158.22;5076564;28;20469;-69
2022/09/07 05:20:20;;;;;;;95.30;90.53;;;;;;;16.55;100.00;101147.03;5068763;28;20024;-69
2022/09/07 05:22:46;;;;;;;95.63;90.70;;;;;;;16.55;100.00;101154.16;5071896;28;20060;-69
2022/09/07 05:25:12;;;;;;;86.68;82.20;;;;;;;16.29;100.00;101150.09;5078786;28;20036;-69
2022/09/07 05:27:37;;;;;;;95.32;90.32;;;;;;;16.22;100.00;101135.81;5078388;28;20401;-68
2022/09/07 05:30:03;;;;;;;103.22;96.97;;;;;;;16.40;100.00;101154.16;5072944;28;20031;-68
2022/09/07 05:32:28;;;;;;;93.00;88.28;;;;;;;16.41;100.00;101161.94;5076354;28;20075;-68
2022/09/07 05:34:53;;;;;;;98.78;92.97;;;;;;;16.35;100.00;101165.38;5071293;28;20040;-68
2022/09/07 05:37:19;;;;;;;91.53;86.65;;;;;;;16.41;100.00;101172.59;5074908;28;20050;-68
2022/09/07 05:39:44;;;;;;;100.20;94.80;;;;;;;16.43;100.00;101167.94;5076568;28;20028;-69
2022/09/07 05:42:10;;;;;;;144.05;136.35;;;;;;;16.41;100.00;101172.59;5071027;28;20029;-69
2022/09/07 05:44:35;;;;;;;102.80;97.00;;;;;;;16.39;100.00;101169.28;5076118;28;20033;-68
2022/09/07 05:47:01;;;;;;;86.13;81.60;;;;;;;16.47;100.00;101170.25;5077214;28;20031;-69
2022/09/07 05:49:26;;;;;;;98.30;93.07;;;;;;;16.45;100.00;101173.09;5073928;28;20029;-69
2022/09/07 05:51:52;;;;;;;85.80;81.13;;;;;;;16.42;100.00;101179.59;5072442;28;20032;-69
2022/09/07 05:54:17;;;;;;;89.65;84.95;;;;;;;16.40;100.00;101184.28;5075583;28;20028;-69
2022/09/07 05:56:43;;;;;;;101.03;95.82;;;;;;;16.45;100.00;101173.91;5071805;28;20032;-69
2022/09/07 05:59:08;;;;;;;101.53;96.32;;;;;;;16.52;100.00;101170.53;5070599;28;20031;-69
2022/09/07 06:01:34;;;;;;;91.53;86.40;;;;;;;16.57;100.00;101165.47;5071937;28;20525;-69
2022/09/07 06:04:00;;;;;;;96.00;90.65;;;;;;;16.55;100.00;101160.34;5071757;28;20059;-69
2022/09/07 06:06:25;;;;;;;100.85;95.60;;;;;;;16.63;100.00;101165.56;5072728;28;20031;-69
2022/09/07 06:08:52;;;;;;;96.05;90.72;;;;;;;16.60;100.00;101173.13;5073424;28;20036;-69
2022/09/07 06:11:22;;;;;;;103.70;97.70;;;;;;;16.46;100.00;101164.06;5072218;28;20028;-69
2022/09/07 06:13:48;;;;;;;109.03;103.05;;;;;;;16.32;100.00;101163.03;5076115;28;20028;-69
2022/09/07 06:16:15;;;;;;;96.03;90.82;;;;;;;16.42;100.00;101168.94;5073560;28;20379;-69
2022/09/07 06:18:43;;;;;;;97.60;92.15;;;;;;;16.43;100.00;101175.91;5076440;28;20256;-69
2022/09/07 06:21:11;;;;;;;100.95;95.75;;;;;;;16.48;100.00;101174.56;5072039;28;20510;-69
2022/09/07 06:23:38;;;;;;;96.43;91.40;;;;;;;16.62;100.00;101177.25;5074941;28;20039;-69
2022/09/07 06:26:05;;;;;;;98.22;92.97;;;;;;;16.70;100.00;101183.50;5074425;28;20032;-69
2022/09/07 06:28:39;;;;;;;104.30;98.57;;;;;;;16.68;100.00;101178.38;5071465;28;20476;-69
2022/09/07 06:31:06;;;;;;;102.72;96.93;;;;;;;16.93;100.00;101196.78;5071501;28;20029;-69
2022/09/07 06:33:32;;;;;;;103.45;98.25;;;;;;;16.98;100.00;101189.88;5073816;28;20027;-69
2022/09/07 06:36:00;;;;;;;115.75;110.28;;;;;;;17.13;100.00;101197.88;5078331;28;20391;-69
2022/09/07 06:38:32;;;;;;;108.47;102.80;;;;;;;17.06;100.00;101197.81;5074175;28;20017;-69
2022/09/07 06:41:01;;;;;;;113.03;107.43;;;;;;;17.12;100.00;101200.75;5073253;28;20039;-69
2022/09/07 06:43:27;;;;;;;106.30;100.60;;;;;;;17.35;100.00;101205.97;5072513;28;20099;-69
2022/09/07 06:45:53;;;;;;;110.85;105.45;;;;;;;17.41;100.00;101210.56;5078290;28;20116;-69
2022/09/07 06:48:19;;;;;;;115.80;109.65;;;;;;;17.20;100.00;101204.16;5072696;28;20024;-69
2022/09/07 06:51:00;;;;;;;110.40;104.82;;;;;;;17.30;100.00;101209.19;5073225;28;20028;-69
2022/09/07 06:53:29;;;;;;;119.13;113.25;;;;;;;17.15;100.00;101209.19;5069633;28;20024;-69
2022/09/07 06:55:54;;;;;;;124.18;117.80;;;;;;;17.20;100.00;101214.81;5069211;28;20120;-69
2022/09/07 06:58:20;;;;;;;119.07;112.97;;;;;;;17.07;100.00;101214.63;5071204;28;20523;-69
2022/09/07 07:00:45;;;;;;;113.60;108.22;;;;;;;17.06;100.00;101211.13;5071368;28;20516;-69
2022/09/07 07:03:11;;;;;;;112.00;106.35;;;;;;;17.03;100.00;101221.34;5075229;28;20056;-69
2022/09/07 07:05:36;;;;;;;116.35;110.72;;;;;;;16.80;100.00;101221.41;5074781;28;20028;-69
2022/09/07 07:08:02;;;;;;;124.63;118.18;;;;;;;16.80;100.00;101226.75;5073679;28;20127;-69
2022/09/07 07:10:27;;;;;;;129.00;122.53;;;;;;;16.77;100.00;101227.91;5075548;28;20044;-69
2022/09/07 07:12:56;;;;;;;99.88;94.60;;;;;;;16.79;100.00;101223.22;5069517;28;20877;-69
2022/09/07 07:15:26;;;;;;;133.43;126.88;;;;;;;16.88;100.00;101225.84;5070864;28;20052;-69
2022/09/07 07:17:51;;;;;;;225.97;213.47;;;;;;;16.85;100.00;101217.22;5067673;28;20029;-69
2022/09/07 07:20:17;;;;;;;111.55;105.55;;;;;;;17.04;100.00;101241.66;5070690;28;20265;-69
2022/09/07 07:22:42;;;;;;;114.28;108.53;;;;;;;17.08;100.00;101242.97;5073710;28;20488;-69
2022/09/07 07:25:08;;;;;;;115.13;109.32;;;;;;;17.16;100.00;101240.22;5058294;28;20060;-69
2022/09/07 07:27:33;;;;;;;127.13;120.60;;;;;;;17.10;100.00;101240.94;5068755;28;20117;-69
2022/09/07 07:29:58;;;;;;;124.35;117.85;;;;;;;17.16;100.00;101239.34;5067090;28;20024;-69
2022/09/07 07:32:24;;;;;;;113.53;107.40;;;;;;;17.16;100.00;101231.34;5072742;28;20524;-69
2022/09/07 07:35:08;;;;;;;116.30;110.18;;;;;;;17.34;100.00;101239.84;5072660;28;20039;-69
2022/09/07 07:37:35;;;;;;;121.88;115.93;;;;;;;17.51;100.00;101237.81;5070141;28;20044;-69
2022/09/07 07:40:03;;;;;;;126.07;119.82;;;;;;;17.66;100.00;101237.78;5068900;28;20062;-70
2022/09/07 07:42:28;;;;;;;125.53;119.22;;;;;;;17.76;100.00;101240.13;5069392;28;20119;-70
2022/09/07 07:44:54;;;;;;;125.85;119.55;;;;;;;17.79;100.00;101223.72;5077449;28;20099;-70
2022/09/07 07:47:20;;;;;;;131.10;124.78;;;;;;;17.84;100.00;101232.06;5069349;28;20296;-70
2022/09/07 07:49:45;;;;;;;125.32;119.57;;;;;;;18.04;100.00;101241.09;5082691;28;20468;-70
2022/09/07 07:52:11;;;;;;;116.07;110.32;;;;;;;18.14;100.00;101237.28;5066188;28;20313;-69
2022/09/07 07:54:36;;;;;;;124.25;118.40;;;;;;;18.12;100.00;101244.66;5078944;28;20484;-69
2022/09/07 07:57:05;;;;;;;128.70;122.18;;;;;;;18.12;100.00;101241.97;5074570;28;20027;-69
2022/09/07 07:59:30;;;;;;;123.85;117.68;;;;;;;17.83;100.00;101251.75;5059067;28;20024;-69
2022/09/07 08:01:56;;;;;;;127.05;120.80;;;;;;;17.77;100.00;101253.31;5063435;28;20268;-69
2022/09/07 08:04:21;;;;;;;122.70;116.90;;;;;;;17.83;100.00;101259.75;5071257;28;20031;-69
2022/09/07 08:06:47;;;;;;;138.70;131.40;;;;;;;17.94;100.00;101256.59;5078407;28;20070;-69
2022/09/07 08:09:13;;;;;;;119.80;114.10;;;;;;;17.85;100.00;101239.03;5075436;28;20026;-69
2022/09/07 08:11:39;;;;;;;121.20;115.13;;;;;;;17.94;100.00;101256.59;5078957;28;20373;-69
2022/09/07 08:14:05;;;;;;;125.75;119.97;;;;;;;17.92;100.00;101255.97;5071741;28;20029;-69
2022/09/07 08:16:31;;;;;;;132.13;125.85;;;;;;;17.97;100.00;101258.91;5075009;28;20024;-69
2022/09/07 08:18:57;;;;;;;127.53;121.10;;;;;;;17.86;100.00;101256.72;5073721;28;20450;-69
2022/09/07 08:21:22;;;;;;;128.88;122.40;;;;;;;17.94;100.00;101261.09;5077674;28;20017;-69
2022/09/07 08:23:48;;;;;;;130.55;124.38;;;;;;;17.86;100.00;101260.22;5080484;28;20472;-69
2022/09/07 08:26:13;;;;;;;137.57;130.60;;;;;;;17.86;100.00;101267.41;5057376;28;20534;-69
2022/09/07 08:28:41;;;;;;;117.78;112.13;;;;;;;17.91;100.00;101265.00;5072426;28;20082;-69
2022/09/07 08:34:00;;;;;;;114.88;108.80;;;;;;;17.77;100.00;101249.78;5028477;28;20060;-69
2022/09/07 08:36:26;;;;;;;133.38;126.75;;;;;;;17.74;100.00;101261.69;5034845;28;20064;-69
2022/09/07 08:38:52;;;;;;;120.82;115.13;;;;;;;17.72;100.00;101260.22;5039544;28;20119;-69
2022/09/07 08:41:36;;;;;;;140.30;133.15;;;;;;;17.87;100.00;101255.69;5037197;28;20366;-69
2022/09/07 08:44:05;;;;;;;131.80;124.97;;;;;;;18.00;100.00;101250.50;5025937;28;20100;-69
2022/09/07 08:46:46;;;;;;;128.43;122.05;;;;;;;17.91;100.00;101254.31;5037967;28;20059;-69
2022/09/07 08:49:37;;;;;;;128.45;122.00;;;;;;;17.59;100.00;101228.84;5032445;28;20493;-69
2022/09/07 08:52:10;;;;;;;122.50;115.95;;;;;;;17.71;100.00;101267.41;5035937;28;20481;-69
2022/09/07 08:54:38;;;;;;;132.15;125.18;;;;;;;17.83;100.00;101268.63;5031874;28;20052;-70
2022/09/07 08:57:04;;;;;;;122.97;116.22;;;;;;;17.90;100.00;101260.69;5026997;28;20041;-70
2022/09/07 08:59:38;;;;;;;110.78;104.97;;;;;;;17.96;100.00;101273.25;5029777;28;20443;-70
2022/09/07 09:02:13;;;;;;;127.75;121.35;;;;;;;18.09;100.00;101278.78;5028205;28;20071;-70
2022/09/07 09:04:40;;;;;;;122.72;116.45;;;;;;;18.21;100.00;101275.59;5029491;28;20025;-69
2022/09/07 09:07:37;;;;;;;127.55;120.40;;;;;;;18.30;100.00;101282.47;5029715;28;20021;-69
2022/09/07 09:10:18;;;;;;;120.70;114.47;;;;;;;18.46;100.00;101282.19;5029579;28;20049;-69
2022/09/07 09:13:00;;;;;;;114.28;108.60;;;;;;;18.53;100.00;101265.41;5027113;28;20029;-69
2022/09/07 09:15:53;;;;;;;124.00;117.65;;;;;;;18.59;100.00;101267.31;5029420;28;20028;-69
2022/09/07 09:18:43;;;;;;;123.25;117.20;;;;;;;18.65;100.00;101278.06;5030094;28;20045;-69
2022/09/07 09:21:15;;;;;;;119.20;112.43;;;;;;;18.65;100.00;101266.53;5032049;28;20111;-69
2022/09/07 09:23:42;;;;;;;124.50;117.75;;;;;;;18.62;100.00;101275.78;5030053;28;20107;-69
2022/09/07 09:26:16;;;;;;;127.47;121.13;;;;;;;18.75;100.00;101264.38;5029499;28;20095;-70
2022/09/07 09:28:41;;;;;;;128.10;121.53;;;;;;;19.07;100.00;101270.16;5029242;28;20366;-70
2022/09/07 09:31:16;;;;;;;115.88;110.18;;;;;;;19.06;100.00;101257.81;5028781;28;20029;-70
2022/09/07 09:33:42;;;;;;;112.00;106.43;;;;;;;19.31;100.00;101272.38;5071662;28;20043;-70
2022/09/07 09:36:24;;;;;;;114.97;108.90;;;;;;;19.49;100.00;101249.63;5079138;28;20071;-70
2022/09/07 09:38:50;;;;;;;123.57;117.25;;;;;;;19.59;100.00;101263.44;5055758;28;20275;-69
2022/09/07 09:41:15;;;;;;;121.22;115.30;;;;;;;19.58;100.00;101256.44;5073943;28;20032;-70
2022/09/07 09:43:55;;;;;;;115.78;109.85;;;;;;;19.66;100.00;101272.34;5076806;28;20035;-69
2022/09/07 09:46:27;;;;;;;129.05;122.75;;;;;;;19.63;100.00;101270.06;5079787;28;20028;-69
2022/09/07 09:49:21;;;;;;;116.13;110.28;;;;;;;19.58;100.00;101267.16;5085916;28;20028;-69
2022/09/07 09:51:55;;;;;;;126.70;120.18;;;;;;;19.47;100.00;101270.41;5072794;28;20082;-69
2022/09/07 09:54:35;;;;;;;134.70;128.15;;;;;;;19.54;100.00;101271.25;5071132;28;20109;-69
2022/09/07 09:57:00;;;;;;;125.50;118.90;;;;;;;19.76;100.00;101273.84;5070092;28;20024;-69
2022/09/07 09:59:32;;;;;;;126.75;120.43;;;;;;;20.01;100.00;101271.44;5073615;28;20021;-69
2022/09/07 10:01:58;;;;;;;133.35;126.45;;;;;;;19.88;98.36;101280.28;5073174;28;20119;-69
2022/09/07 10:04:24;;;;;;;139.10;132.10;;;;;;;19.92;99.78;101284.19;5072572;28;20188;-69
2022/09/07 10:06:56;;;;;;;133.90;127.40;;;;;;;19.90;99.97;101264.81;5078839;28;20024;-69
2022/09/07 10:09:33;;;;;;;138.50;131.75;;;;;;;20.02;98.91;101267.75;5071342;28;20025;-69
2022/09/07 10:12:01;;;;;;;140.15;133.20;;;;;;;19.97;98.47;101271.06;5076413;28;20028;-69
2022/09/07 10:14:42;;;;;;;146.82;139.70;;;;;;;19.97;98.14;101273.72;5072895;28;20382;-69
2022/09/07 10:17:33;;;;;;;134.07;127.53;;;;;;;20.40;97.60;101272.56;5084350;28;20031;-70
2022/09/07 10:20:17;;;;;;;136.30;130.00;;;;;;;20.58;95.29;101267.47;5078980;28;20353;-70
2022/09/07 10:23:04;;;;;;;142.80;136.02;;;;;;;20.79;94.31;101274.47;5052794;28;20036;-70
2022/09/07 10:25:29;;;;;;;155.02;147.80;;;;;;;20.90;92.80;101263.09;5063259;28;20040;-69
2022/09/07 10:28:15;;;;;;;170.75;162.85;;;;;;;20.70;92.79;101260.44;5068115;28;20036;-70
2022/09/07 10:31:02;;;;;;;154.52;147.10;;;;;;;20.84;92.73;101255.91;5067134;28;20344;-68
2022/09/07 10:33:33;;;;;;;160.07;152.40;;;;;;;21.34;92.09;101258.88;5068696;28;20453;-68
2022/09/07 10:36:07;;;;;;;135.27;128.63;;;;;;;21.93;89.67;101259.69;5068977;28;20024;-70
2022/09/07 10:38:39;;;;;;;149.27;142.15;;;;;;;22.47;87.34;101262.06;5069843;28;20477;-70
2022/09/07 10:41:08;;;;;;;165.50;158.15;;;;;;;22.45;84.13;101267.69;5070181;28;20020;-69
2022/09/07 10:43:47;;;;;;;158.15;150.63;;;;;;;22.41;85.35;101269.16;5068596;28;20082;-70
2022/09/07 10:46:35;;;;;;;161.07;153.77;;;;;;;23.77;82.16;101259.28;5070204;28;20051;-70
2022/09/07 10:49:28;;;;;;;134.32;128.15;;;;;;;23.83;77.60;101256.75;5071447;28;20036;-69
2022/09/07 10:51:56;;;;;;;125.40;119.60;;;;;;;23.98;77.83;101251.78;5066654;28;20467;-69
2022/09/07 10:54:49;;;;;;;125.47;119.85;;;;;;;24.56;75.44;101261.91;5069833;28;20031;-71
2022/09/07 10:57:42;;;;;;;112.72;107.50;;;;;;;24.67;76.62;101245.94;5074703;28;20031;-70
2022/09/07 11:00:14;;;;;;;120.22;114.70;;;;;;;25.94;73.16;101249.72;5071896;28;20051;-70
2022/09/07 11:03:13;;;;;;;126.97;121.40;;;;;;;26.46;71.41;101252.25;5073777;28;20077;-69
2022/09/07 11:05:42;;;;;;;107.43;102.45;;;;;;;26.29;68.19;101249.53;5063267;28;20472;-69
2022/09/07 11:08:26;;;;;;;107.40;102.43;;;;;;;25.12;70.92;101238.03;5065930;28;20100;-69
2022/09/07 11:11:14;;;;;;;121.80;116.28;;;;;;;24.91;73.87;101244.91;5070171;28;20024;-69
2022/09/07 11:13:43;;;;;;;126.13;120.32;;;;;;;25.12;75.59;101248.03;5073569;28;20032;-70